sensor_id;sensor_type;location;lat;lon;timestamp;temperature;humidity
67899;DHT22;54699;51.796;10.956;2022-10-16T00:01:36;22.70;56.40
67899;DHT22;54699;51.796;10.956;2022-10-16T00:04:04;22.70;56.30
67899;DHT22;54699;51.796;10.956;2022-10-16T00:06:32;22.70;56.40
67899;DHT22;54699;51.796;10.956;2022-10-16T00:08:59;22.70;56.40
67899;DHT22;54699;51.796;10.956;2022-10-16T00:11:27;22.70;56.40
67899;DHT22;54699;51.796;10.956;2022-10-16T00:13:59;22.70;56.40
67899;DHT22;54699;51.796;10.956;2022-10-16T00:16:27;22.70;56.40
67899;DHT22;54699;51.796;10.956;2022-10-16T00:18:55;22.70;56.40
67899;DHT22;54699;51.796;10.956;2022-10-16T00:21:23;22.70;56.40
67899;DHT22;54699;51.796;10.956;2022-10-16T00:23:54;22.70;56.30
67899;DHT22;54699;51.796;10.956;2022-10-16T00:26:24;22.70;56.20
67899;DHT22;54699;51.796;10.956;2022-10-16T00:28:54;22.80;56.40
67899;DHT22;54699;51.796;10.956;2022-10-16T00:31:22;22.70;56.40
67899;DHT22;54699;51.796;10.956;2022-10-16T00:33:49;22.70;56.40
67899;DHT22;54699;51.796;10.956;2022-10-16T00:36:17;22.70;56.30
67899;DHT22;54699;51.796;10.956;2022-10-16T00:38:45;22.70;56.30
67899;DHT22;54699;51.796;10.956;2022-10-16T00:41:14;22.70;56.30
67899;DHT22;54699;51.796;10.956;2022-10-16T00:43:44;22.70;56.40
67899;DHT22;54699;51.796;10.956;2022-10-16T00:46:13;22.70;56.30
67899;DHT22;54699;51.796;10.956;2022-10-16T00:48:45;22.70;56.30
67899;DHT22;54699;51.796;10.956;2022-10-16T00:51:17;22.70;56.40
67899;DHT22;54699;51.796;10.956;2022-10-16T00:53:48;22.70;56.40
67899;DHT22;54699;51.796;10.956;2022-10-16T00:56:17;22.70;57.40
67899;DHT22;54699;51.796;10.956;2022-10-16T00:58:44;22.70;56.50
67899;DHT22;54699;51.796;10.956;2022-10-16T01:01:11;22.70;56.30
67899;DHT22;54699;51.796;10.956;2022-10-16T01:03:38;22.70;56.40
67899;DHT22;54699;51.796;10.956;2022-10-16T01:06:09;22.70;56.50
67899;DHT22;54699;51.796;10.956;2022-10-16T01:08:49;22.70;56.50
67899;DHT22;54699;51.796;10.956;2022-10-16T01:11:30;22.70;56.50
67899;DHT22;54699;51.796;10.956;2022-10-16T01:14:05;22.70;56.40
67899;DHT22;54699;51.796;10.956;2022-10-16T01:16:37;22.70;56.60
67899;DHT22;54699;51.796;10.956;2022-10-16T01:19:09;22.60;56.60
67899;DHT22;54699;51.796;10.956;2022-10-16T01:21:41;22.70;56.50
67899;DHT22;54699;51.796;10.956;2022-10-16T01:24:15;22.70;56.60
67899;DHT22;54699;51.796;10.956;2022-10-16T01:27:10;22.70;56.60
67899;DHT22;54699;51.796;10.956;2022-10-16T01:29:40;22.70;56.60
67899;DHT22;54699;51.796;10.956;2022-10-16T01:32:15;22.60;56.50
67899;DHT22;54699;51.796;10.956;2022-10-16T01:34:47;22.60;56.60
67899;DHT22;54699;51.796;10.956;2022-10-16T01:37:30;22.60;56.60
67899;DHT22;54699;51.796;10.956;2022-10-16T01:40:01;22.60;56.60
67899;DHT22;54699;51.796;10.956;2022-10-16T01:42:35;22.60;56.60
67899;DHT22;54699;51.796;10.956;2022-10-16T01:45:06;22.60;56.60
67899;DHT22;54699;51.796;10.956;2022-10-16T01:47:36;22.60;56.50
67899;DHT22;54699;51.796;10.956;2022-10-16T01:50:05;22.60;56.60
67899;DHT22;54699;51.796;10.956;2022-10-16T01:52:34;22.60;56.70
67899;DHT22;54699;51.796;10.956;2022-10-16T01:55:03;22.60;56.70
67899;DHT22;54699;51.796;10.956;2022-10-16T01:57:34;22.60;56.70
67899;DHT22;54699;51.796;10.956;2022-10-16T02:00:06;22.60;56.60
67899;DHT22;54699;51.796;10.956;2022-10-16T02:02:35;22.60;56.60
67899;DHT22;54699;51.796;10.956;2022-10-16T02:05:06;22.60;56.60
67899;DHT22;54699;51.796;10.956;2022-10-16T02:07:40;22.60;56.60
67899;DHT22;54699;51.796;10.956;2022-10-16T02:10:07;22.60;56.60
67899;DHT22;54699;51.796;10.956;2022-10-16T02:12:36;22.70;56.60
67899;DHT22;54699;51.796;10.956;2022-10-16T02:15:07;22.60;56.50
67899;DHT22;54699;51.796;10.956;2022-10-16T02:17:35;22.60;56.50
67899;DHT22;54699;51.796;10.956;2022-10-16T02:20:02;22.60;56.50
67899;DHT22;54699;51.796;10.956;2022-10-16T02:22:32;22.60;56.60
67899;DHT22;54699;51.796;10.956;2022-10-16T02:25:02;22.60;56.60
67899;DHT22;54699;51.796;10.956;2022-10-16T02:27:33;22.60;56.70
67899;DHT22;54699;51.796;10.956;2022-10-16T02:30:07;22.60;56.70
67899;DHT22;54699;51.796;10.956;2022-10-16T02:32:38;22.60;56.60
67899;DHT22;54699;51.796;10.956;2022-10-16T02:35:08;22.60;56.60
67899;DHT22;54699;51.796;10.956;2022-10-16T02:37:36;22.60;56.60
67899;DHT22;54699;51.796;10.956;2022-10-16T02:40:05;22.60;56.60
67899;DHT22;54699;51.796;10.956;2022-10-16T02:42:33;22.60;56.50
67899;DHT22;54699;51.796;10.956;2022-10-16T02:45:07;22.60;56.60
67899;DHT22;54699;51.796;10.956;2022-10-16T02:47:36;22.60;56.60
67899;DHT22;54699;51.796;10.956;2022-10-16T02:50:03;22.60;56.50
67899;DHT22;54699;51.796;10.956;2022-10-16T02:52:30;22.60;56.60
67899;DHT22;54699;51.796;10.956;2022-10-16T02:54:57;22.60;56.50
67899;DHT22;54699;51.796;10.956;2022-10-16T02:57:24;22.60;56.50
67899;DHT22;54699;51.796;10.956;2022-10-16T02:59:50;22.60;56.50
67899;DHT22;54699;51.796;10.956;2022-10-16T03:02:19;22.60;56.50
67899;DHT22;54699;51.796;10.956;2022-10-16T03:04:47;22.60;56.50
67899;DHT22;54699;51.796;10.956;2022-10-16T03:07:14;22.50;56.50
67899;DHT22;54699;51.796;10.956;2022-10-16T03:09:40;22.50;56.50
67899;DHT22;54699;51.796;10.956;2022-10-16T03:12:07;22.60;56.40
67899;DHT22;54699;51.796;10.956;2022-10-16T03:14:34;22.60;56.20
67899;DHT22;54699;51.796;10.956;2022-10-16T03:17:01;22.60;56.20
67899;DHT22;54699;51.796;10.956;2022-10-16T03:19:29;22.60;56.10
67899;DHT22;54699;51.796;10.956;2022-10-16T03:21:56;22.60;56.10
67899;DHT22;54699;51.796;10.956;2022-10-16T03:24:22;22.60;56.10
67899;DHT22;54699;51.796;10.956;2022-10-16T03:26:49;22.60;56.10
67899;DHT22;54699;51.796;10.956;2022-10-16T03:29:16;22.60;56.00
67899;DHT22;54699;51.796;10.956;2022-10-16T03:31:43;22.60;56.10
67899;DHT22;54699;51.796;10.956;2022-10-16T03:34:10;22.60;56.10
67899;DHT22;54699;51.796;10.956;2022-10-16T03:36:38;22.60;56.00
67899;DHT22;54699;51.796;10.956;2022-10-16T03:39:04;22.60;56.00
67899;DHT22;54699;51.796;10.956;2022-10-16T03:41:31;22.60;56.20
67899;DHT22;54699;51.796;10.956;2022-10-16T03:43:58;22.60;56.20
67899;DHT22;54699;51.796;10.956;2022-10-16T03:46:25;22.60;56.00
67899;DHT22;54699;51.796;10.956;2022-10-16T03:48:52;22.60;56.00
67899;DHT22;54699;51.796;10.956;2022-10-16T03:51:19;22.60;56.00
67899;DHT22;54699;51.796;10.956;2022-10-16T03:53:47;22.60;56.10
67899;DHT22;54699;51.796;10.956;2022-10-16T03:56:14;22.60;56.20
67899;DHT22;54699;51.796;10.956;2022-10-16T03:58:41;22.60;56.10
67899;DHT22;54699;51.796;10.956;2022-10-16T04:01:07;22.60;56.00
67899;DHT22;54699;51.796;10.956;2022-10-16T04:03:34;22.60;56.00
67899;DHT22;54699;51.796;10.956;2022-10-16T04:06:01;22.60;56.10
67899;DHT22;54699;51.796;10.956;2022-10-16T04:08:28;22.60;56.00
67899;DHT22;54699;51.796;10.956;2022-10-16T04:10:56;22.60;56.00
67899;DHT22;54699;51.796;10.956;2022-10-16T04:13:23;22.60;56.00
67899;DHT22;54699;51.796;10.956;2022-10-16T04:15:50;22.60;55.90
67899;DHT22;54699;51.796;10.956;2022-10-16T04:18:16;22.60;56.10
67899;DHT22;54699;51.796;10.956;2022-10-16T04:20:43;22.60;56.00
67899;DHT22;54699;51.796;10.956;2022-10-16T04:23:10;22.60;56.00
67899;DHT22;54699;51.796;10.956;2022-10-16T04:25:37;22.60;56.00
67899;DHT22;54699;51.796;10.956;2022-10-16T04:28:05;22.50;56.00
67899;DHT22;54699;51.796;10.956;2022-10-16T04:30:31;22.50;56.10
67899;DHT22;54699;51.796;10.956;2022-10-16T04:32:59;22.60;56.10
67899;DHT22;54699;51.796;10.956;2022-10-16T04:35:25;22.60;56.10
67899;DHT22;54699;51.796;10.956;2022-10-16T04:37:52;22.60;56.10
67899;DHT22;54699;51.796;10.956;2022-10-16T04:40:19;22.50;56.00
67899;DHT22;54699;51.796;10.956;2022-10-16T04:42:46;22.60;56.10
67899;DHT22;54699;51.796;10.956;2022-10-16T04:45:14;22.50;55.90
67899;DHT22;54699;51.796;10.956;2022-10-16T04:47:41;22.50;56.00
67899;DHT22;54699;51.796;10.956;2022-10-16T04:50:07;22.60;56.10
67899;DHT22;54699;51.796;10.956;2022-10-16T04:52:35;22.50;56.00
67899;DHT22;54699;51.796;10.956;2022-10-16T04:55:01;22.60;56.10
67899;DHT22;54699;51.796;10.956;2022-10-16T04:57:28;22.60;56.10
67899;DHT22;54699;51.796;10.956;2022-10-16T04:59:56;22.50;56.00
67899;DHT22;54699;51.796;10.956;2022-10-16T05:02:24;22.50;56.00
67899;DHT22;54699;51.796;10.956;2022-10-16T05:04:51;22.50;56.00
67899;DHT22;54699;51.796;10.956;2022-10-16T05:07:18;22.50;55.80
67899;DHT22;54699;51.796;10.956;2022-10-16T05:09:45;22.60;55.80
67899;DHT22;54699;51.796;10.956;2022-10-16T05:12:11;22.50;55.90
67899;DHT22;54699;51.796;10.956;2022-10-16T05:14:38;22.50;55.90
67899;DHT22;54699;51.796;10.956;2022-10-16T05:17:05;22.50;55.90
67899;DHT22;54699;51.796;10.956;2022-10-16T05:19:33;22.50;55.90
67899;DHT22;54699;51.796;10.956;2022-10-16T05:22:00;22.50;55.90
67899;DHT22;54699;51.796;10.956;2022-10-16T05:24:27;22.50;55.90
67899;DHT22;54699;51.796;10.956;2022-10-16T05:26:54;22.50;55.90
67899;DHT22;54699;51.796;10.956;2022-10-16T05:29:21;22.50;55.90
67899;DHT22;54699;51.796;10.956;2022-10-16T05:31:49;22.50;55.90
67899;DHT22;54699;51.796;10.956;2022-10-16T05:34:17;22.50;56.00
67899;DHT22;54699;51.796;10.956;2022-10-16T05:36:45;22.50;56.80
67899;DHT22;54699;51.796;10.956;2022-10-16T05:39:13;22.50;55.90
67899;DHT22;54699;51.796;10.956;2022-10-16T05:41:41;22.50;56.00
67899;DHT22;54699;51.796;10.956;2022-10-16T05:44:08;22.50;55.80
67899;DHT22;54699;51.796;10.956;2022-10-16T05:46:35;22.50;56.00
67899;DHT22;54699;51.796;10.956;2022-10-16T05:49:02;22.50;56.00
67899;DHT22;54699;51.796;10.956;2022-10-16T05:51:30;22.50;56.00
67899;DHT22;54699;51.796;10.956;2022-10-16T05:53:58;22.50;56.00
67899;DHT22;54699;51.796;10.956;2022-10-16T05:56:24;22.50;55.90
67899;DHT22;54699;51.796;10.956;2022-10-16T05:58:51;22.50;56.00
67899;DHT22;54699;51.796;10.956;2022-10-16T06:01:18;22.50;55.90
67899;DHT22;54699;51.796;10.956;2022-10-16T06:03:49;22.50;56.00
67899;DHT22;54699;51.796;10.956;2022-10-16T06:06:16;22.50;55.90
67899;DHT22;54699;51.796;10.956;2022-10-16T06:08:46;22.50;55.90
67899;DHT22;54699;51.796;10.956;2022-10-16T06:11:16;22.50;55.90
67899;DHT22;54699;51.796;10.956;2022-10-16T06:13:44;22.50;55.80
67899;DHT22;54699;51.796;10.956;2022-10-16T06:16:12;22.50;55.80
67899;DHT22;54699;51.796;10.956;2022-10-16T06:18:39;22.50;55.90
67899;DHT22;54699;51.796;10.956;2022-10-16T06:21:07;22.50;55.90
67899;DHT22;54699;51.796;10.956;2022-10-16T06:23:35;22.50;55.90
67899;DHT22;54699;51.796;10.956;2022-10-16T06:26:05;22.50;55.90
67899;DHT22;54699;51.796;10.956;2022-10-16T06:28:34;22.50;55.90
67899;DHT22;54699;51.796;10.956;2022-10-16T06:31:01;22.50;55.90
67899;DHT22;54699;51.796;10.956;2022-10-16T06:33:30;22.50;55.90
67899;DHT22;54699;51.796;10.956;2022-10-16T06:36:00;22.50;55.80
67899;DHT22;54699;51.796;10.956;2022-10-16T06:38:28;22.50;55.90
67899;DHT22;54699;51.796;10.956;2022-10-16T06:40:56;22.50;55.90
67899;DHT22;54699;51.796;10.956;2022-10-16T06:43:23;22.50;55.90
67899;DHT22;54699;51.796;10.956;2022-10-16T06:45:52;22.50;55.90
67899;DHT22;54699;51.796;10.956;2022-10-16T06:48:20;22.50;56.00
67899;DHT22;54699;51.796;10.956;2022-10-16T06:50:54;22.50;55.90
67899;DHT22;54699;51.796;10.956;2022-10-16T06:53:22;22.40;55.90
67899;DHT22;54699;51.796;10.956;2022-10-16T06:55:49;22.50;55.90
67899;DHT22;54699;51.796;10.956;2022-10-16T06:58:16;22.40;56.00
67899;DHT22;54699;51.796;10.956;2022-10-16T07:00:43;22.40;56.00
67899;DHT22;54699;51.796;10.956;2022-10-16T07:03:11;22.50;56.00
67899;DHT22;54699;51.796;10.956;2022-10-16T07:05:39;22.40;56.00
67899;DHT22;54699;51.796;10.956;2022-10-16T07:08:06;22.40;56.10
67899;DHT22;54699;51.796;10.956;2022-10-16T07:10:34;22.40;56.00
67899;DHT22;54699;51.796;10.956;2022-10-16T07:13:01;22.40;56.10
67899;DHT22;54699;51.796;10.956;2022-10-16T07:15:28;22.40;56.20
67899;DHT22;54699;51.796;10.956;2022-10-16T07:17:58;22.30;56.30
67899;DHT22;54699;51.796;10.956;2022-10-16T07:20:26;22.40;56.20
67899;DHT22;54699;51.796;10.956;2022-10-16T07:22:52;22.40;56.30
67899;DHT22;54699;51.796;10.956;2022-10-16T07:25:19;22.30;56.30
67899;DHT22;54699;51.796;10.956;2022-10-16T07:27:46;22.30;56.50
67899;DHT22;54699;51.796;10.956;2022-10-16T07:30:13;22.30;56.40
67899;DHT22;54699;51.796;10.956;2022-10-16T07:32:40;22.30;56.50
67899;DHT22;54699;51.796;10.956;2022-10-16T07:35:07;22.30;56.50
67899;DHT22;54699;51.796;10.956;2022-10-16T07:37:35;22.30;56.50
67899;DHT22;54699;51.796;10.956;2022-10-16T07:40:02;22.30;56.40
67899;DHT22;54699;51.796;10.956;2022-10-16T07:42:29;22.30;56.50
67899;DHT22;54699;51.796;10.956;2022-10-16T07:44:56;22.30;56.70
67899;DHT22;54699;51.796;10.956;2022-10-16T07:47:23;22.30;56.60
67899;DHT22;54699;51.796;10.956;2022-10-16T07:49:50;22.30;56.70
67899;DHT22;54699;51.796;10.956;2022-10-16T07:52:17;22.30;56.70
67899;DHT22;54699;51.796;10.956;2022-10-16T07:54:45;22.40;56.90
67899;DHT22;54699;51.796;10.956;2022-10-16T07:57:12;22.40;57.00
67899;DHT22;54699;51.796;10.956;2022-10-16T07:59:44;22.30;57.00
67899;DHT22;54699;51.796;10.956;2022-10-16T08:02:10;22.30;57.00
67899;DHT22;54699;51.796;10.956;2022-10-16T08:04:37;22.30;56.70
67899;DHT22;54699;51.796;10.956;2022-10-16T08:07:06;22.30;56.70
67899;DHT22;54699;51.796;10.956;2022-10-16T08:09:33;22.30;56.70
67899;DHT22;54699;51.796;10.956;2022-10-16T08:12:01;22.30;56.70
67899;DHT22;54699;51.796;10.956;2022-10-16T08:14:29;22.30;56.90
67899;DHT22;54699;51.796;10.956;2022-10-16T08:16:56;22.40;56.90
67899;DHT22;54699;51.796;10.956;2022-10-16T08:19:22;22.30;56.80
67899;DHT22;54699;51.796;10.956;2022-10-16T08:21:49;22.30;56.60
67899;DHT22;54699;51.796;10.956;2022-10-16T08:24:16;22.30;56.50
67899;DHT22;54699;51.796;10.956;2022-10-16T08:26:43;22.30;57.00
67899;DHT22;54699;51.796;10.956;2022-10-16T08:29:12;22.40;56.80
67899;DHT22;54699;51.796;10.956;2022-10-16T08:31:39;22.40;56.70
67899;DHT22;54699;51.796;10.956;2022-10-16T08:34:06;22.40;56.90
67899;DHT22;54699;51.796;10.956;2022-10-16T08:36:33;22.40;56.80
67899;DHT22;54699;51.796;10.956;2022-10-16T08:39:00;22.40;56.80
67899;DHT22;54699;51.796;10.956;2022-10-16T08:41:41;22.40;56.80
67899;DHT22;54699;51.796;10.956;2022-10-16T08:44:37;22.40;57.10
67899;DHT22;54699;51.796;10.956;2022-10-16T08:47:17;22.40;57.20
67899;DHT22;54699;51.796;10.956;2022-10-16T08:49:51;22.40;57.10
67899;DHT22;54699;51.796;10.956;2022-10-16T08:52:22;22.40;57.50
67899;DHT22;54699;51.796;10.956;2022-10-16T08:54:52;22.40;57.20
67899;DHT22;54699;51.796;10.956;2022-10-16T08:57:22;22.40;57.50
67899;DHT22;54699;51.796;10.956;2022-10-16T08:59:53;22.40;57.40
67899;DHT22;54699;51.796;10.956;2022-10-16T09:02:26;22.40;57.10
67899;DHT22;54699;51.796;10.956;2022-10-16T09:05:00;22.40;57.50
67899;DHT22;54699;51.796;10.956;2022-10-16T09:07:38;22.40;57.40
67899;DHT22;54699;51.796;10.956;2022-10-16T09:10:16;22.40;56.90
67899;DHT22;54699;51.796;10.956;2022-10-16T09:12:54;22.40;56.50
67899;DHT22;54699;51.796;10.956;2022-10-16T09:15:31;22.40;56.70
67899;DHT22;54699;51.796;10.956;2022-10-16T09:18:05;22.40;55.40
67899;DHT22;54699;51.796;10.956;2022-10-16T09:20:42;22.40;55.80
67899;DHT22;54699;51.796;10.956;2022-10-16T09:23:16;22.50;55.10
67899;DHT22;54699;51.796;10.956;2022-10-16T09:25:45;22.50;55.00
67899;DHT22;54699;51.796;10.956;2022-10-16T09:28:14;22.50;55.10
67899;DHT22;54699;51.796;10.956;2022-10-16T09:30:43;22.50;55.20
67899;DHT22;54699;51.796;10.956;2022-10-16T09:33:12;22.50;54.10
67899;DHT22;54699;51.796;10.956;2022-10-16T09:35:40;22.50;55.40
67899;DHT22;54699;51.796;10.956;2022-10-16T09:38:09;22.50;54.80
67899;DHT22;54699;51.796;10.956;2022-10-16T09:40:46;22.50;54.10
67899;DHT22;54699;51.796;10.956;2022-10-16T09:43:17;22.50;55.20
67899;DHT22;54699;51.796;10.956;2022-10-16T09:46:08;22.60;55.00
67899;DHT22;54699;51.796;10.956;2022-10-16T09:48:49;22.60;53.20
67899;DHT22;54699;51.796;10.956;2022-10-16T09:51:18;22.60;54.10
67899;DHT22;54699;51.796;10.956;2022-10-16T09:53:47;22.60;55.00
67899;DHT22;54699;51.796;10.956;2022-10-16T09:56:21;22.50;54.60
67899;DHT22;54699;51.796;10.956;2022-10-16T09:58:49;22.60;54.40
67899;DHT22;54699;51.796;10.956;2022-10-16T10:01:18;22.60;55.00
67899;DHT22;54699;51.796;10.956;2022-10-16T10:03:47;22.60;53.80
67899;DHT22;54699;51.796;10.956;2022-10-16T10:06:20;22.60;54.40
67899;DHT22;54699;51.796;10.956;2022-10-16T10:08:56;22.60;53.30
67899;DHT22;54699;51.796;10.956;2022-10-16T10:11:36;22.70;54.30
67899;DHT22;54699;51.796;10.956;2022-10-16T10:14:09;22.70;53.80
67899;DHT22;54699;51.796;10.956;2022-10-16T10:16:45;22.80;53.10
67899;DHT22;54699;51.796;10.956;2022-10-16T10:19:13;22.80;52.60
67899;DHT22;54699;51.796;10.956;2022-10-16T10:21:42;22.80;51.50
67899;DHT22;54699;51.796;10.956;2022-10-16T10:24:10;22.90;52.30
67899;DHT22;54699;51.796;10.956;2022-10-16T10:26:38;22.90;51.30
67899;DHT22;54699;51.796;10.956;2022-10-16T10:29:12;22.90;51.60
67899;DHT22;54699;51.796;10.956;2022-10-16T10:31:54;22.90;51.00
67899;DHT22;54699;51.796;10.956;2022-10-16T10:34:36;22.90;50.50
67899;DHT22;54699;51.796;10.956;2022-10-16T10:37:31;22.90;51.10
67899;DHT22;54699;51.796;10.956;2022-10-16T10:40:11;22.90;50.70
67899;DHT22;54699;51.796;10.956;2022-10-16T10:43:02;22.90;50.90
67899;DHT22;54699;51.796;10.956;2022-10-16T10:45:38;22.90;51.20
67899;DHT22;54699;51.796;10.956;2022-10-16T10:48:26;22.90;50.70
67899;DHT22;54699;51.796;10.956;2022-10-16T10:51:08;22.90;50.40
67899;DHT22;54699;51.796;10.956;2022-10-16T10:53:41;22.90;51.40
67899;DHT22;54699;51.796;10.956;2022-10-16T10:56:20;22.90;50.50
67899;DHT22;54699;51.796;10.956;2022-10-16T10:59:11;22.90;50.60
67899;DHT22;54699;51.796;10.956;2022-10-16T11:01:54;22.90;50.60
67899;DHT22;54699;51.796;10.956;2022-10-16T11:07:21;22.90;50.50
67899;DHT22;54699;51.796;10.956;2022-10-16T11:09:55;22.90;50.40
67899;DHT22;54699;51.796;10.956;2022-10-16T11:12:25;22.90;50.10
67899;DHT22;54699;51.796;10.956;2022-10-16T11:14:58;22.90;50.10
67899;DHT22;54699;51.796;10.956;2022-10-16T11:17:30;22.90;50.20
67899;DHT22;54699;51.796;10.956;2022-10-16T11:20:04;22.90;51.20
67899;DHT22;54699;51.796;10.956;2022-10-16T11:22:38;23.00;52.80
67899;DHT22;54699;51.796;10.956;2022-10-16T11:25:12;23.00;53.30
67899;DHT22;54699;51.796;10.956;2022-10-16T11:27:42;23.00;53.20
67899;DHT22;54699;51.796;10.956;2022-10-16T11:30:14;23.00;53.10
67899;DHT22;54699;51.796;10.956;2022-10-16T11:32:49;23.10;53.10
67899;DHT22;54699;51.796;10.956;2022-10-16T11:35:23;23.10;53.10
67899;DHT22;54699;51.796;10.956;2022-10-16T11:37:58;23.20;53.20
67899;DHT22;54699;51.796;10.956;2022-10-16T11:40:30;23.20;53.30
67899;DHT22;54699;51.796;10.956;2022-10-16T11:43:02;23.20;53.10
67899;DHT22;54699;51.796;10.956;2022-10-16T11:45:40;23.20;53.00
67899;DHT22;54699;51.796;10.956;2022-10-16T11:48:14;23.30;53.20
67899;DHT22;54699;51.796;10.956;2022-10-16T11:50:48;23.30;53.30
67899;DHT22;54699;51.796;10.956;2022-10-16T11:53:21;23.40;53.60
67899;DHT22;54699;51.796;10.956;2022-10-16T11:56:05;23.40;53.80
67899;DHT22;54699;51.796;10.956;2022-10-16T11:58:33;23.40;53.70
67899;DHT22;54699;51.796;10.956;2022-10-16T12:01:07;23.40;54.00
67899;DHT22;54699;51.796;10.956;2022-10-16T12:03:45;23.50;54.30
67899;DHT22;54699;51.796;10.956;2022-10-16T12:06:25;23.50;54.50
67899;DHT22;54699;51.796;10.956;2022-10-16T12:08:58;23.50;54.60
67899;DHT22;54699;51.796;10.956;2022-10-16T12:11:33;23.60;55.00
67899;DHT22;54699;51.796;10.956;2022-10-16T12:14:19;23.60;55.00
67899;DHT22;54699;51.796;10.956;2022-10-16T12:16:52;23.60;54.80
67899;DHT22;54699;51.796;10.956;2022-10-16T12:19:21;23.60;55.10
67899;DHT22;54699;51.796;10.956;2022-10-16T12:21:50;23.70;54.90
67899;DHT22;54699;51.796;10.956;2022-10-16T12:24:20;23.70;54.70
67899;DHT22;54699;51.796;10.956;2022-10-16T12:26:58;23.70;55.10
67899;DHT22;54699;51.796;10.956;2022-10-16T12:29:29;23.70;55.50
67899;DHT22;54699;51.796;10.956;2022-10-16T12:31:59;23.70;55.30
67899;DHT22;54699;51.796;10.956;2022-10-16T12:34:29;23.80;55.20
67899;DHT22;54699;51.796;10.956;2022-10-16T12:37:09;23.80;55.20
67899;DHT22;54699;51.796;10.956;2022-10-16T12:39:39;23.80;55.50
67899;DHT22;54699;51.796;10.956;2022-10-16T12:42:19;23.90;55.50
67899;DHT22;54699;51.796;10.956;2022-10-16T12:44:48;23.90;55.70
67899;DHT22;54699;51.796;10.956;2022-10-16T12:47:19;23.90;55.80
67899;DHT22;54699;51.796;10.956;2022-10-16T12:49:48;23.90;55.90
67899;DHT22;54699;51.796;10.956;2022-10-16T12:52:28;23.90;56.00
67899;DHT22;54699;51.796;10.956;2022-10-16T12:55:00;23.90;56.30
67899;DHT22;54699;51.796;10.956;2022-10-16T12:57:31;24.00;56.40
67899;DHT22;54699;51.796;10.956;2022-10-16T13:00:10;24.00;56.10
67899;DHT22;54699;51.796;10.956;2022-10-16T13:02:54;24.00;55.90
67899;DHT22;54699;51.796;10.956;2022-10-16T13:05:53;24.00;55.60
67899;DHT22;54699;51.796;10.956;2022-10-16T13:08:33;24.00;55.70
67899;DHT22;54699;51.796;10.956;2022-10-16T13:11:14;24.00;56.00
67899;DHT22;54699;51.796;10.956;2022-10-16T13:14:09;24.00;56.00
67899;DHT22;54699;51.796;10.956;2022-10-16T13:17:01;24.00;55.80
67899;DHT22;54699;51.796;10.956;2022-10-16T13:19:36;24.10;55.70
67899;DHT22;54699;51.796;10.956;2022-10-16T13:22:11;24.00;55.70
67899;DHT22;54699;51.796;10.956;2022-10-16T13:24:52;24.00;56.50
67899;DHT22;54699;51.796;10.956;2022-10-16T13:27:31;24.00;56.50
67899;DHT22;54699;51.796;10.956;2022-10-16T13:30:09;24.10;56.30
67899;DHT22;54699;51.796;10.956;2022-10-16T13:32:40;24.00;56.10
67899;DHT22;54699;51.796;10.956;2022-10-16T13:35:20;24.00;55.70
67899;DHT22;54699;51.796;10.956;2022-10-16T13:37:49;24.00;55.70
67899;DHT22;54699;51.796;10.956;2022-10-16T13:40:21;24.00;55.70
67899;DHT22;54699;51.796;10.956;2022-10-16T13:42:49;24.00;56.10
67899;DHT22;54699;51.796;10.956;2022-10-16T13:45:17;24.00;56.90
67899;DHT22;54699;51.796;10.956;2022-10-16T13:47:45;24.00;57.90
67899;DHT22;54699;51.796;10.956;2022-10-16T13:50:13;24.00;57.80
67899;DHT22;54699;51.796;10.956;2022-10-16T13:52:41;24.10;57.70
67899;DHT22;54699;51.796;10.956;2022-10-16T13:55:10;24.10;58.10
67899;DHT22;54699;51.796;10.956;2022-10-16T13:57:39;24.10;57.50
67899;DHT22;54699;51.796;10.956;2022-10-16T14:00:17;24.10;57.30
67899;DHT22;54699;51.796;10.956;2022-10-16T14:02:44;24.10;57.20
67899;DHT22;54699;51.796;10.956;2022-10-16T14:05:17;24.20;57.30
67899;DHT22;54699;51.796;10.956;2022-10-16T14:07:44;24.10;57.40
67899;DHT22;54699;51.796;10.956;2022-10-16T14:10:20;24.20;57.70
67899;DHT22;54699;51.796;10.956;2022-10-16T14:12:58;24.10;57.80
67899;DHT22;54699;51.796;10.956;2022-10-16T14:15:28;24.10;57.90
67899;DHT22;54699;51.796;10.956;2022-10-16T14:17:56;24.20;57.50
67899;DHT22;54699;51.796;10.956;2022-10-16T14:20:25;24.20;57.40
67899;DHT22;54699;51.796;10.956;2022-10-16T14:23:00;24.20;57.50
67899;DHT22;54699;51.796;10.956;2022-10-16T14:25:29;24.20;57.30
67899;DHT22;54699;51.796;10.956;2022-10-16T14:27:59;24.10;57.00
67899;DHT22;54699;51.796;10.956;2022-10-16T14:30:29;24.10;56.70
67899;DHT22;54699;51.796;10.956;2022-10-16T14:32:58;24.10;57.50
67899;DHT22;54699;51.796;10.956;2022-10-16T14:35:27;24.10;58.00
67899;DHT22;54699;51.796;10.956;2022-10-16T14:37:56;24.10;58.50
67899;DHT22;54699;51.796;10.956;2022-10-16T14:40:25;24.10;58.20
67899;DHT22;54699;51.796;10.956;2022-10-16T14:42:54;24.10;58.20
67899;DHT22;54699;51.796;10.956;2022-10-16T14:45:23;24.10;58.10
67899;DHT22;54699;51.796;10.956;2022-10-16T14:47:53;24.20;58.10
67899;DHT22;54699;51.796;10.956;2022-10-16T14:50:21;24.10;58.10
67899;DHT22;54699;51.796;10.956;2022-10-16T14:52:48;24.10;58.20
67899;DHT22;54699;51.796;10.956;2022-10-16T14:55:15;24.20;58.20
67899;DHT22;54699;51.796;10.956;2022-10-16T14:57:43;24.20;58.20
67899;DHT22;54699;51.796;10.956;2022-10-16T15:00:16;24.20;58.30
67899;DHT22;54699;51.796;10.956;2022-10-16T15:02:47;24.20;58.00
67899;DHT22;54699;51.796;10.956;2022-10-16T15:05:16;24.20;58.20
67899;DHT22;54699;51.796;10.956;2022-10-16T15:07:45;24.20;58.20
67899;DHT22;54699;51.796;10.956;2022-10-16T15:10:12;24.20;58.00
67899;DHT22;54699;51.796;10.956;2022-10-16T15:12:39;24.20;58.20
67899;DHT22;54699;51.796;10.956;2022-10-16T15:15:21;24.20;58.20
67899;DHT22;54699;51.796;10.956;2022-10-16T15:17:54;24.10;57.80
67899;DHT22;54699;51.796;10.956;2022-10-16T15:20:22;24.20;58.00
67899;DHT22;54699;51.796;10.956;2022-10-16T15:22:50;24.10;57.80
67899;DHT22;54699;51.796;10.956;2022-10-16T15:25:26;24.10;57.90
67899;DHT22;54699;51.796;10.956;2022-10-16T15:27:56;24.10;57.90
67899;DHT22;54699;51.796;10.956;2022-10-16T15:30:23;24.10;57.70
67899;DHT22;54699;51.796;10.956;2022-10-16T15:32:50;24.10;57.80
67899;DHT22;54699;51.796;10.956;2022-10-16T15:35:18;24.10;57.60
67899;DHT22;54699;51.796;10.956;2022-10-16T15:37:45;24.10;57.50
67899;DHT22;54699;51.796;10.956;2022-10-16T15:40:13;24.00;57.40